Airfield :
LOGIN :

Register | Disclaimer

   EN    FR    IT 

 










Legend :    VFR   Marginal VFR   IFR   Intensive IFR   Very Intensive IFR
Visi :
Ceiling :
>= 8 km
>= 3000ft
5 to 8 km
1000 to 3000 ft
1500m to 5 km
500 to 1000 ft
800 to 1500m
200 to 500 ft
< 800m
< 200 ft
Symbols :   Thunderstorms  Fog  Heavy snow  Heavy precipitations  Wind > 20 kt
SIGMETs :     Misc.  Thunderstorms  Icing  Turbulence  Mountain Waves  Volcanic Ashes







- Airport Elevation : 90 ft
- IATA code : NTE
- Download approach charts


LFRS - Nantes

CURRENT METAR :
  • 160700Z AUTO 22009KT 200V260 9999 BKN016 16/13 Q1021 NOSIG

EXPIRED METARs :
  • 160630Z AUTO 22007KT 190V260 9999 FEW016 15/13 Q1021 NOSIG
  • 160600Z AUTO 22006KT 180V250 CAVOK 15/13 Q1021 NOSIG
  • 160530Z AUTO 19006KT CAVOK 14/12 Q1020 NOSIG
  • 160500Z AUTO 20006KT 9999 FEW043 13/12 Q1020 TEMPO 3000 -DZRA BKN009 BKN020
  • 160430Z AUTO 19004KT 9999 SCT015 13/12 Q1020 TEMPO 3000 -DZRA BKN009 BKN020

TAF TAF LFRS
Valid from the 16 at 06:00 until the 17 at 12:00 UTC


160500Z 1606/1712 21010KT 9999 BKN020 BKN040
BECMG 1612/1615 27010KT CAVOK
BECMG 1621/1624 VRB03KT
BECMG 1700/1703 3000 BR
PROB40
TEMPO 1703/1706 0500 FG VV///
BECMG 1706/1708 CAVOK
ATIS : +33 2 40 05 12 74
No reported NOTAMs for that airfield.



MET'MAP, your aeronautical weather chart ! - Copyright ORBIFLY December 2007 - Disclaimer

ORBIFLY MET'MAP TEAM :

Programming & Development : Alexandra Zaïnal
Concept & Development : Baudouin d'Aumeries
Co-Development & Prog : Marc-Olivier Méhu
Technical & hardware support : Manuel Goepfert

Contact : metmap@orbifly.com




SOURCES & CREDITS :

   NOAA